Time;durP1;ratioP1;P1;durP2;ratioP2;P2;SDS_P1;SDS_P2;PMS_P1;PMS_P2;Temp;Humidity;BMP_temperature;BMP_pressure;BME280_temperature;BME280_humidity;BME280_pressure;Samples;Min_cycle;Max_cycle;Signal;HPM_P1;HPM_P2
2024/03/30 00:00:48;;;;;;;0.10;0.10;;;;;;;14.62;57.69;101170.84;5072919;28;20101;-86
2024/03/30 00:03:14;;;;;;;0.10;0.10;;;;;;;14.72;58.12;101178.13;5055705;28;20428;-86
2024/03/30 00:05:39;;;;;;;0.10;0.10;;;;;;;14.72;57.41;101172.91;5089345;28;20051;-85
2024/03/30 00:08:06;;;;;;;0.10;0.10;;;;;;;14.62;58.22;101176.03;5072425;28;20047;-85
2024/03/30 00:10:31;;;;;;;0.20;0.20;;;;;;;14.64;58.85;101179.41;5088996;28;20406;-85
2024/03/30 00:12:58;;;;;;;0.10;0.10;;;;;;;14.58;58.43;101189.34;5088956;28;20028;-86
2024/03/30 00:15:27;;;;;;;0.20;0.20;;;;;;;14.61;58.04;101192.59;5072604;28;20031;-86
2024/03/30 00:17:56;;;;;;;0.20;0.20;;;;;;;14.40;58.35;101177.31;5072595;28;20067;-86
2024/03/30 00:20:22;;;;;;;0.20;0.20;;;;;;;14.29;59.24;101180.53;5072644;28;20541;-86
2024/03/30 00:22:49;;;;;;;0.20;0.20;;;;;;;14.19;58.96;101189.75;5055877;28;20195;-85
2024/03/30 00:25:15;;;;;;;0.10;0.10;;;;;;;14.11;59.48;101192.78;5075538;28;20052;-85
2024/03/30 00:27:41;;;;;;;0.20;0.20;;;;;;;14.17;59.48;101202.03;5059293;28;20027;-86
2024/03/30 00:30:07;;;;;;;0.20;0.20;;;;;;;13.94;59.74;101185.88;5075725;28;20031;-85
2024/03/30 00:32:32;;;;;;;0.20;0.20;;;;;;;13.86;60.20;101195.84;5075495;28;20405;-85
2024/03/30 00:34:58;;;;;;;0.10;0.10;;;;;;;13.87;60.17;101189.75;5075803;28;20032;-85
2024/03/30 00:37:23;;;;;;;0.20;0.20;;;;;;;13.99;60.35;101209.06;5092742;28;20028;-86
2024/03/30 00:39:49;;;;;;;0.10;0.10;;;;;;;13.76;60.46;101192.94;5075345;28;20081;-86
2024/03/30 00:42:14;;;;;;;0.10;0.10;;;;;;;13.82;60.87;101216.91;5075594;28;20085;-85
2024/03/30 00:44:40;;;;;;;0.20;0.20;;;;;;;13.80;60.48;101203.16;5092444;28;20024;-85
2024/03/30 00:47:05;;;;;;;0.10;0.10;;;;;;;13.67;60.95;101189.97;5092450;28;20085;-85
2024/03/30 00:49:31;;;;;;;0.20;0.20;;;;;;;13.80;60.94;101211.81;5075640;28;20051;-85
2024/03/30 00:51:56;;;;;;;0.10;0.10;;;;;;;13.71;60.99;101201.88;5092483;28;20024;-85
2024/03/30 00:54:22;;;;;;;0.20;0.20;;;;;;;13.69;60.86;101201.13;5075215;28;20035;-86
2024/03/30 00:56:47;;;;;;;0.10;0.10;;;;;;;13.54;61.81;101181.97;5058777;28;20055;-85
2024/03/30 00:59:13;;;;;;;0.20;0.20;;;;;;;13.61;60.90;101187.69;5092037;28;20036;-84
2024/03/30 01:01:39;;;;;;;0.20;0.20;;;;;;;13.76;60.66;101207.66;5058631;28;20027;-85
2024/03/30 01:04:04;;;;;;;0.15;0.15;;;;;;;13.70;60.95;101189.81;5075606;28;20032;-85
2024/03/30 01:06:30;;;;;;;0.20;0.20;;;;;;;13.70;60.92;101187.22;5092887;28;20055;-86
2024/03/30 01:08:55;;;;;;;0.20;0.20;;;;;;;13.73;61.18;101207.84;5091751;28;20040;-85
2024/03/30 01:11:21;;;;;;;0.20;0.20;;;;;;;13.79;60.86;101197.13;5058368;28;20032;-85
2024/03/30 01:13:47;;;;;;;0.10;0.10;;;;;;;13.90;60.52;101197.38;5058209;28;20020;-85
2024/03/30 01:16:13;;;;;;;0.15;0.15;;;;;;;13.82;60.86;101190.91;5091954;28;20032;-85
2024/03/30 01:18:38;;;;;;;0.20;0.20;;;;;;;13.87;60.82;101184.56;5091619;28;20036;-85
2024/03/30 01:21:05;;;;;;;0.20;0.20;;;;;;;13.87;60.71;101192.34;5058269;28;20016;-85
2024/03/30 01:23:30;;;;;;;0.20;0.20;;;;;;;13.57;61.04;101170.56;5074559;28;20113;-85
2024/03/30 01:25:57;;;;;;;0.20;0.20;;;;;;;13.68;61.34;101181.25;5074617;28;20057;-85
2024/03/30 01:28:24;;;;;;;0.20;0.20;;;;;;;13.78;60.77;101195.44;5091385;28;20120;-85
2024/03/30 01:30:50;;;;;;;0.20;0.20;;;;;;;13.53;60.94;101163.84;5091586;28;20047;-85
2024/03/30 01:33:16;;;;;;;0.20;0.20;;;;;;;13.65;61.15;101192.63;5074484;28;20553;-85
2024/03/30 01:35:42;;;;;;;0.20;0.20;;;;;;;13.53;61.16;101192.44;5091146;28;20024;-86
2024/03/30 01:38:07;;;;;;;0.10;0.10;;;;;;;13.56;61.20;101189.69;5074005;28;20035;-85
2024/03/30 01:40:33;;;;;;;0.10;0.10;;;;;;;13.58;61.42;101214.69;5091272;28;20028;-84
2024/03/30 01:43:03;;;;;;;0.20;0.20;;;;;;;13.55;61.55;101208.78;5074618;28;20534;-85
2024/03/30 01:45:35;;;;;;;0.10;0.10;;;;;;;13.54;61.61;101207.13;5074745;28;20564;-86
2024/03/30 01:48:02;;;;;;;0.20;0.20;;;;;;;13.47;62.00;101189.25;5091277;28;20024;-85
2024/03/30 01:50:29;;;;;;;0.20;0.20;;;;;;;13.64;61.84;101219.56;5074668;28;20036;-86
2024/03/30 01:52:55;;;;;;;0.20;0.20;;;;;;;13.57;62.06;101207.81;5073817;28;20028;-85
2024/03/30 01:55:20;;;;;;;0.20;0.20;;;;;;;13.54;62.19;101214.91;5074101;28;20172;-85
2024/03/30 01:57:46;;;;;;;0.20;0.20;;;;;;;13.48;62.41;101216.94;5074572;28;20056;-85
2024/03/30 02:00:11;;;;;;;0.20;0.20;;;;;;;13.42;62.64;101206.84;5073982;28;20031;-85
2024/03/30 02:02:37;;;;;;;0.20;0.20;;;;;;;13.48;62.42;101214.34;5057407;28;20415;-85
2024/03/30 02:05:03;;;;;;;0.10;0.10;;;;;;;13.44;62.57;101210.19;5057358;28;20108;-85
2024/03/30 02:07:28;;;;;;;0.10;0.10;;;;;;;13.37;63.63;101206.25;5073877;28;20024;-85
2024/03/30 02:09:54;;;;;;;0.20;0.20;;;;;;;13.38;63.47;101196.69;5090955;28;20071;-85
2024/03/30 02:12:21;;;;;;;0.20;0.20;;;;;;;13.37;63.56;101193.25;5090757;28;20032;-85
2024/03/30 02:14:48;;;;;;;0.20;0.20;;;;;;;13.39;64.01;101194.00;5073741;28;20028;-85
2024/03/30 02:17:13;;;;;;;0.20;0.20;;;;;;;13.36;64.06;101172.53;5074181;28;20048;-85
2024/03/30 02:19:44;;;;;;;0.15;0.15;;;;;;;13.45;64.13;101191.06;5073531;28;20082;-85
2024/03/30 02:22:09;;;;;;;0.10;0.10;;;;;;;13.34;64.38;101182.16;5074000;28;20028;-85
2024/03/30 02:24:35;;;;;;;0.10;0.10;;;;;;;13.32;64.32;101171.84;5073449;28;20127;-86
2024/03/30 02:27:00;;;;;;;0.10;0.10;;;;;;;13.40;65.10;101192.25;5090360;28;20020;-86
2024/03/30 02:29:26;;;;;;;0.20;0.20;;;;;;;13.31;65.00;101184.94;5073695;28;20032;-86
2024/03/30 02:31:52;;;;;;;0.20;0.20;;;;;;;13.30;64.92;101184.09;5073749;28;20028;-85
2024/03/30 02:34:17;;;;;;;0.20;0.20;;;;;;;13.39;65.33;101194.00;5073523;28;20486;-85
2024/03/30 02:36:43;;;;;;;0.20;0.20;;;;;;;13.41;64.94;101192.16;5089870;28;20516;-84
2024/03/30 02:39:08;;;;;;;0.20;0.20;;;;;;;13.29;65.36;101198.00;5090149;28;20066;-85
2024/03/30 02:41:34;;;;;;;0.20;0.20;;;;;;;13.31;65.45;101196.16;5056784;28;20508;-86
2024/03/30 02:44:00;;;;;;;0.20;0.20;;;;;;;13.22;65.72;101185.41;5090622;28;20497;-85
2024/03/30 02:46:25;;;;;;;0.20;0.20;;;;;;;13.32;65.66;101200.44;5072194;28;20497;-85
2024/03/30 02:48:51;;;;;;;0.20;0.20;;;;;;;13.11;65.83;101175.53;5073317;28;20473;-85
2024/03/30 02:51:16;;;;;;;0.20;0.20;;;;;;;13.19;65.83;101187.25;5073069;28;20024;-85
2024/03/30 02:53:42;;;;;;;0.10;0.10;;;;;;;12.98;66.60;101172.72;5056372;28;20409;-86
2024/03/30 02:56:07;;;;;;;0.10;0.10;;;;;;;13.09;66.72;101183.38;5091264;28;20043;-84
2024/03/30 02:58:33;;;;;;;0.20;0.20;;;;;;;13.14;66.21;101183.16;5055972;28;20024;-84
2024/03/30 03:00:58;;;;;;;0.20;0.20;;;;;;;13.07;66.53;101179.16;5073352;28;20046;-85
2024/03/30 03:03:24;;;;;;;0.20;0.20;;;;;;;12.87;66.68;101173.22;5089584;28;20035;-85
2024/03/30 03:05:56;;;;;;;0.10;0.10;;;;;;;12.89;66.44;101181.78;5072638;28;20028;-84
2024/03/30 03:08:27;;;;;;;0.20;0.20;;;;;;;12.99;65.95;101199.53;5073341;28;20058;-84
2024/03/30 03:10:53;;;;;;;0.10;0.10;;;;;;;12.83;66.38;101196.81;5057587;28;20063;-86
2024/03/30 03:13:18;;;;;;;0.20;0.20;;;;;;;12.69;66.71;101186.28;5056135;28;20024;-86
2024/03/30 03:15:44;;;;;;;0.20;0.20;;;;;;;12.56;67.22;101202.44;5072758;28;20024;-85
2024/03/30 03:18:09;;;;;;;0.20;0.20;;;;;;;12.50;67.11;101194.97;5073232;28;20060;-85
2024/03/30 03:20:35;;;;;;;0.20;0.20;;;;;;;12.44;67.72;101194.41;5089145;28;20408;-85
2024/03/30 03:23:00;;;;;;;0.20;0.20;;;;;;;12.45;67.20;101193.47;5072638;28;20448;-85
2024/03/30 03:25:26;;;;;;;0.20;0.20;;;;;;;12.52;66.61;101210.44;5073005;28;20512;-85
2024/03/30 03:27:52;;;;;;;0.20;0.20;;;;;;;12.28;66.71;101171.75;5072754;28;20490;-86
2024/03/30 03:30:17;;;;;;;0.20;0.20;;;;;;;12.34;66.50;101170.66;5089553;28;20525;-85
2024/03/30 03:32:45;;;;;;;0.17;0.17;;;;;;;12.56;66.50;101189.47;5090835;28;20024;-86
2024/03/30 03:35:11;;;;;;;0.10;0.10;;;;;;;12.39;66.29;101149.66;5072446;28;20081;-85
2024/03/30 03:37:36;;;;;;;0.20;0.20;;;;;;;12.50;66.48;101181.16;5089507;28;20032;-85
2024/03/30 03:40:02;;;;;;;0.10;0.10;;;;;;;12.55;67.08;101197.31;5055985;28;20420;-86
2024/03/30 03:42:27;;;;;;;0.20;0.20;;;;;;;12.39;66.70;101183.38;5089360;28;20028;-85
2024/03/30 03:44:53;;;;;;;0.13;0.13;;;;;;;12.29;67.48;101178.66;5055704;28;20115;-85
2024/03/30 03:47:18;;;;;;;0.10;0.10;;;;;;;12.43;67.26;101195.31;5072610;28;20063;-85
2024/03/30 03:49:44;;;;;;;0.10;0.10;;;;;;;12.43;66.65;101190.13;5072240;28;20028;-85
2024/03/30 03:52:09;;;;;;;0.10;0.10;;;;;;;12.27;66.07;101170.09;5090798;28;20031;-86
2024/03/30 03:54:35;;;;;;;0.20;0.20;;;;;;;12.37;65.91;101195.59;5089099;28;20111;-85
2024/03/30 03:57:01;;;;;;;0.10;0.10;;;;;;;12.40;66.27;101203.25;5091096;28;20035;-85
2024/03/30 03:59:26;;;;;;;0.10;0.10;;;;;;;12.43;66.17;101201.34;5093189;28;20028;-84
2024/03/30 04:01:52;;;;;;;0.20;0.20;;;;;;;12.40;65.95;101201.50;5093152;28;20106;-84
2024/03/30 04:04:17;;;;;;;0.20;0.20;;;;;;;12.43;64.70;101201.34;5076191;28;20027;-86
2024/03/30 04:06:43;;;;;;;0.20;0.20;;;;;;;12.46;64.81;101210.72;5076316;28;20039;-84
2024/03/30 04:09:09;;;;;;;0.20;0.20;;;;;;;12.46;65.04;101205.53;5076046;28;20024;-86
2024/03/30 04:11:35;;;;;;;0.20;0.20;;;;;;;12.27;65.52;101198.63;5059573;28;20500;-85
2024/03/30 04:14:00;;;;;;;0.10;0.10;;;;;;;12.21;65.74;101217.09;5059280;28;20447;-85
2024/03/30 04:16:26;;;;;;;0.20;0.20;;;;;;;12.28;65.19;101221.06;5059386;28;20028;-85
2024/03/30 04:18:52;;;;;;;0.10;0.10;;;;;;;11.92;65.48;101214.97;5075742;28;20138;-86
2024/03/30 04:21:17;;;;;;;0.20;0.20;;;;;;;12.16;65.15;101242.38;5059457;28;20020;-84
2024/03/30 04:23:43;;;;;;;0.20;0.20;;;;;;;11.99;65.35;101247.47;5075785;28;20181;-86
2024/03/30 04:26:17;;;;;;;0.20;0.20;;;;;;;11.83;65.72;101242.16;5075790;28;20566;-85
2024/03/30 04:28:42;;;;;;;0.20;0.20;;;;;;;11.86;65.07;101239.41;5077124;28;20024;-85
2024/03/30 04:31:10;;;;;;;0.20;0.20;;;;;;;11.83;65.67;101251.69;5075663;28;20055;-84
2024/03/30 04:33:35;;;;;;;0.20;0.20;;;;;;;11.78;65.71;101242.31;5076126;28;20405;-85
2024/03/30 04:36:02;;;;;;;0.10;0.10;;;;;;;11.83;65.35;101242.16;5092710;28;20490;-85
2024/03/30 04:38:28;;;;;;;0.10;0.10;;;;;;;11.73;66.18;101246.03;5075805;28;20504;-85
2024/03/30 04:41:00;;;;;;;0.20;0.20;;;;;;;11.76;66.31;101236.34;5075627;28;20103;-85
2024/03/30 04:43:30;;;;;;;0.20;0.20;;;;;;;11.71;67.04;101242.66;5092508;28;20081;-85
2024/03/30 04:45:56;;;;;;;0.10;0.10;;;;;;;11.90;66.87;101245.31;5075933;28;20082;-86
2024/03/30 04:48:23;;;;;;;0.20;0.20;;;;;;;11.81;66.40;101235.38;5058801;28;20474;-84
2024/03/30 04:50:48;;;;;;;0.20;0.20;;;;;;;11.80;66.90;101223.28;5075442;28;20028;-85
2024/03/30 04:53:25;;;;;;;0.20;0.20;;;;;;;11.95;66.52;101243.34;5092284;28;20024;-85
2024/03/30 04:55:54;;;;;;;0.20;0.20;;;;;;;11.95;66.62;101246.78;5058781;28;20497;-84
2024/03/30 04:58:22;;;;;;;0.20;0.20;;;;;;;11.95;66.96;101257.16;5092285;28;20039;-85
2024/03/30 05:00:48;;;;;;;0.20;0.20;;;;;;;12.01;66.93;101262.09;5075002;28;20097;-85
2024/03/30 05:03:14;;;;;;;0.20;0.20;;;;;;;11.98;66.41;101241.44;5075318;28;20109;-86
2024/03/30 05:05:44;;;;;;;0.20;0.20;;;;;;;12.09;66.27;101253.94;5093409;28;20087;-85
2024/03/30 05:08:13;;;;;;;0.10;0.10;;;;;;;12.01;67.18;101245.69;5058808;28;20118;-84
2024/03/30 05:10:38;;;;;;;0.20;0.20;;;;;;;12.17;66.75;101264.81;5057877;28;20155;-85
2024/03/30 05:13:05;;;;;;;0.20;0.20;;;;;;;12.14;66.28;101267.56;5075332;28;20024;-85
2024/03/30 05:15:38;;;;;;;0.20;0.20;;;;;;;12.07;66.65;101268.72;5074894;28;20035;-85
2024/03/30 05:18:04;;;;;;;0.20;0.20;;;;;;;12.05;66.86;101258.44;5075644;28;20031;-85
2024/03/30 05:23:14;;;;;;;0.20;0.20;;;;;;;12.06;66.86;101239.34;5091745;28;20031;-84
2024/03/30 05:25:42;;;;;;;0.20;0.20;;;;;;;12.20;66.44;101262.09;5074824;28;20024;-84
2024/03/30 05:28:08;;;;;;;0.20;0.20;;;;;;;12.19;65.83;101252.63;5074730;28;20097;-85
2024/03/30 05:30:33;;;;;;;0.20;0.20;;;;;;;12.48;65.28;101263.41;5091343;28;20514;-85
2024/03/30 05:32:59;;;;;;;0.20;0.20;;;;;;;12.41;64.77;101239.50;5058116;28;20119;-85
2024/03/30 05:35:24;;;;;;;0.20;0.20;;;;;;;12.53;64.22;101243.28;5091340;28;20032;-85
2024/03/30 05:37:50;;;;;;;0.20;0.20;;;;;;;12.79;64.11;101265.41;5074595;28;20038;-85
2024/03/30 05:40:15;;;;;;;0.20;0.20;;;;;;;12.83;64.15;101272.97;5074156;28;20064;-84
2024/03/30 05:42:41;;;;;;;0.20;0.20;;;;;;;12.88;64.00;101258.03;5057739;28;20055;-84
2024/03/30 05:45:07;;;;;;;0.20;0.20;;;;;;;12.80;63.82;101244.56;5074122;28;20032;-85
2024/03/30 05:47:32;;;;;;;0.20;0.20;;;;;;;12.87;63.47;101256.31;5074327;28;20028;-85
2024/03/30 05:49:58;;;;;;;0.20;0.20;;;;;;;13.06;63.31;101271.00;5074296;28;20031;-85
2024/03/30 05:52:23;;;;;;;0.10;0.10;;;;;;;13.18;62.79;101270.44;5091487;28;20052;-85
2024/03/30 05:54:49;;;;;;;0.20;0.20;;;;;;;13.33;62.82;101274.88;5074230;28;20016;-85
2024/03/30 05:57:14;;;;;;;0.20;0.20;;;;;;;13.28;63.16;101250.06;5091312;28;20035;-86
2024/03/30 05:59:40;;;;;;;0.20;0.20;;;;;;;13.49;62.45;101262.78;5090743;28;20024;-86
2024/03/30 06:02:05;;;;;;;0.20;0.20;;;;;;;13.65;62.24;101267.19;5057228;28;20042;-84
2024/03/30 06:04:31;;;;;;;0.20;0.20;;;;;;;13.75;62.57;101271.00;5074146;28;20051;-85
2024/03/30 06:06:57;;;;;;;0.20;0.20;;;;;;;13.82;61.87;101254.16;5073762;28;20048;-84
2024/03/30 06:09:22;;;;;;;0.20;0.20;;;;;;;13.98;61.61;101270.66;5090948;28;20028;-84
2024/03/30 06:11:48;;;;;;;0.10;0.10;;;;;;;14.09;61.76;101271.84;5074358;28;20111;-85
2024/03/30 06:14:14;;;;;;;0.20;0.20;;;;;;;14.06;61.11;101258.09;5090821;28;20074;-85
2024/03/30 06:16:39;;;;;;;0.20;0.20;;;;;;;14.23;60.98;101271.94;5073826;28;20062;-86
2024/03/30 06:19:05;;;;;;;0.20;0.20;;;;;;;14.36;60.44;101275.56;5090774;28;20099;-85
2024/03/30 06:21:30;;;;;;;0.20;0.20;;;;;;;14.44;60.89;101273.38;5090478;28;20501;-85
2024/03/30 06:23:56;;;;;;;0.15;0.15;;;;;;;14.61;60.21;101288.09;5056746;28;20514;-85
2024/03/30 06:26:21;;;;;;;0.10;0.10;;;;;;;14.67;60.07;101276.53;5073418;28;20028;-84
2024/03/30 06:28:47;;;;;;;0.20;0.20;;;;;;;14.72;59.62;101285.75;5091389;28;20081;-85
2024/03/30 06:31:12;;;;;;;0.20;0.20;;;;;;;14.78;59.83;101280.19;5073701;28;20058;-85
2024/03/30 06:33:38;;;;;;;0.20;0.20;;;;;;;14.92;58.85;101275.03;5073477;28;20074;-85
2024/03/30 06:36:04;;;;;;;0.20;0.20;;;;;;;15.09;58.24;101284.50;5090201;28;20028;-85
2024/03/30 06:38:29;;;;;;;0.10;0.10;;;;;;;15.04;58.43;101293.50;5073175;28;20021;-85
2024/03/30 06:43:41;;;;;;;0.10;0.10;;;;;;;15.26;58.16;101306.16;5075564;28;20508;-85
2024/03/30 06:46:08;;;;;;;0.20;0.20;;;;;;;15.38;58.40;101302.84;5073703;28;20024;-85
2024/03/30 06:48:33;;;;;;;0.20;0.20;;;;;;;15.48;57.97;101294.41;5090087;28;20028;-85
2024/03/30 06:50:59;;;;;;;0.20;0.20;;;;;;;15.64;56.96;101290.94;5056726;28;20026;-85
2024/03/30 06:53:24;;;;;;;0.20;0.20;;;;;;;15.75;56.15;101296.34;5073288;28;20577;-86
2024/03/30 06:55:50;;;;;;;0.20;0.20;;;;;;;15.96;56.29;101309.84;5056277;28;20031;-85
2024/03/30 06:58:15;;;;;;;0.20;0.20;;;;;;;15.92;54.97;101317.00;5072895;28;20085;-85
2024/03/30 07:00:42;;;;;;;0.20;0.20;;;;;;;15.94;56.34;101290.84;5089532;28;20028;-85
2024/03/30 07:03:07;;;;;;;0.20;0.20;;;;;;;16.15;54.55;101320.03;5090187;28;20035;-85
2024/03/30 07:05:33;;;;;;;0.20;0.20;;;;;;;16.29;54.53;101310.38;5089949;28;20055;-85
2024/03/30 07:07:58;;;;;;;0.20;0.20;;;;;;;16.46;53.96;101309.34;5073048;28;20028;-85
2024/03/30 07:10:24;;;;;;;0.20;0.20;;;;;;;16.45;53.69;101291.16;5072805;28;20055;-85
2024/03/30 07:12:54;;;;;;;0.10;0.10;;;;;;;16.57;54.20;101300.84;5072602;28;20489;-85
2024/03/30 07:15:20;;;;;;;0.20;0.20;;;;;;;16.68;53.38;101305.38;5089858;28;20084;-85
2024/03/30 07:17:45;;;;;;;0.20;0.20;;;;;;;16.79;53.54;101295.94;5056085;28;20103;-86
2024/03/30 07:20:11;;;;;;;0.20;0.20;;;;;;;16.80;52.52;101276.72;5089385;28;20028;-85
2024/03/30 07:22:36;;;;;;;0.20;0.20;;;;;;;17.03;51.92;101298.75;5089298;28;20052;-85
2024/03/30 07:25:03;;;;;;;0.20;0.20;;;;;;;17.15;51.88;101310.19;5055647;28;20502;-85
2024/03/30 07:27:28;;;;;;;0.20;0.20;;;;;;;17.31;51.08;101305.63;5056350;28;20546;-85
2024/03/30 07:29:54;;;;;;;0.20;0.20;;;;;;;17.44;50.35;101303.88;5072810;28;20058;-85
2024/03/30 07:32:19;;;;;;;0.20;0.20;;;;;;;17.57;50.65;101313.50;5072538;28;20528;-85
2024/03/30 07:34:49;;;;;;;0.10;0.10;;;;;;;17.57;49.42;101314.34;5055665;28;20039;-85
2024/03/30 07:37:14;;;;;;;0.10;0.10;;;;;;;17.61;49.17;101320.22;5072505;28;20036;-86
2024/03/30 07:39:40;;;;;;;0.20;0.20;;;;;;;17.70;48.79;101303.94;5055529;28;20380;-85
2024/03/30 07:42:07;;;;;;;0.20;0.20;;;;;;;17.83;48.71;101317.84;5072776;28;20084;-85
2024/03/30 07:44:33;;;;;;;0.20;0.20;;;;;;;17.79;49.07;101326.84;5089359;28;20034;-84
2024/03/30 07:46:59;;;;;;;0.20;0.20;;;;;;;17.86;48.21;101328.09;5072287;28;20053;-85
2024/03/30 07:49:24;;;;;;;0.20;0.20;;;;;;;17.88;47.87;101320.97;5072369;28;20053;-86
2024/03/30 07:51:50;;;;;;;0.20;0.20;;;;;;;17.94;47.57;101317.94;5089255;28;20409;-85
2024/03/30 07:54:15;;;;;;;0.20;0.20;;;;;;;17.94;47.63;101312.72;5088691;28;20493;-85
2024/03/30 07:56:41;;;;;;;0.10;0.10;;;;;;;18.08;47.45;101321.38;5072092;28;20027;-85
2024/03/30 07:59:06;;;;;;;0.20;0.20;;;;;;;18.14;47.44;101307.88;5089212;28;20067;-85
2024/03/30 08:01:33;;;;;;;0.20;0.20;;;;;;;18.18;47.63;101302.31;5072549;28;20031;-85
2024/03/30 08:03:59;;;;;;;0.20;0.20;;;;;;;18.24;47.22;101311.53;5089238;28;20048;-85
2024/03/30 08:06:25;;;;;;;0.20;0.20;;;;;;;18.29;47.09;101312.06;5071963;28;20031;-85
2024/03/30 08:08:50;;;;;;;0.20;0.20;;;;;;;18.32;47.69;101301.34;5055332;28;20032;-85
2024/03/30 08:11:16;;;;;;;0.10;0.10;;;;;;;18.43;46.95;101296.19;5072118;28;20066;-85
2024/03/30 08:13:42;;;;;;;0.20;0.20;;;;;;;18.38;47.54;101279.94;5072396;28;20509;-85
2024/03/30 08:16:07;;;;;;;0.20;0.20;;;;;;;18.41;47.24;101282.38;5055272;28;20420;-85
2024/03/30 08:18:34;;;;;;;0.10;0.10;;;;;;;18.67;46.92;101301.47;5072135;28;20598;-85
2024/03/30 08:21:04;;;;;;;0.10;0.10;;;;;;;18.67;46.71;101304.09;5072266;28;20032;-85
2024/03/30 08:23:30;;;;;;;0.20;0.20;;;;;;;18.76;46.66;101294.72;5055112;28;20048;-86
2024/03/30 08:25:56;;;;;;;0.10;0.10;;;;;;;18.75;46.77;101288.66;5055436;28;20046;-86
2024/03/30 08:28:22;;;;;;;0.20;0.20;;;;;;;18.96;46.20;101291.47;5088783;28;20036;-85
2024/03/30 08:30:49;;;;;;;0.20;0.20;;;;;;;18.95;46.05;101274.09;5055188;28;20031;-85
2024/03/30 08:33:17;;;;;;;0.20;0.20;;;;;;;19.18;46.85;101285.50;5089243;28;20035;-85
2024/03/30 08:35:53;;;;;;;0.20;0.20;;;;;;;19.24;45.84;101271.09;5089671;28;20123;-85
2024/03/30 08:38:19;;;;;;;0.20;0.20;;;;;;;19.34;46.02;101272.91;5071484;28;20020;-86
2024/03/30 08:40:44;;;;;;;0.20;0.20;;;;;;;19.41;45.96;101278.53;5089807;28;20067;-85
2024/03/30 08:43:10;;;;;;;0.20;0.20;;;;;;;19.56;45.89;101273.91;5088399;28;20090;-85
2024/03/30 08:45:35;;;;;;;0.20;0.20;;;;;;;19.63;44.94;101262.84;5074801;28;20052;-86
2024/03/30 08:48:01;;;;;;;0.20;0.20;;;;;;;19.73;45.00;101271.69;5075236;28;20028;-85
2024/03/30 08:50:26;;;;;;;0.20;0.20;;;;;;;19.82;44.89;101258.81;5074970;28;20047;-85
2024/03/30 08:52:52;;;;;;;0.17;0.17;;;;;;;20.07;45.05;101263.81;5075077;28;20024;-85
2024/03/30 08:55:18;;;;;;;0.10;0.10;;;;;;;20.20;44.19;101267.13;5075089;28;20418;-85
2024/03/30 08:57:44;;;;;;;0.20;0.20;;;;;;;20.29;44.29;101252.44;5075436;28;20422;-85
2024/03/30 09:00:10;;;;;;;0.20;0.20;;;;;;;20.33;44.09;101246.81;5075353;28;20024;-85
2024/03/30 09:02:37;;;;;;;0.20;0.20;;;;;;;20.48;43.76;101251.84;5092141;28;20477;-85
2024/03/30 09:05:03;;;;;;;0.20;0.20;;;;;;;20.54;44.00;101252.16;5075533;28;20024;-85
2024/03/30 09:07:29;;;;;;;0.20;0.20;;;;;;;20.66;43.25;101242.47;5093080;28;20031;-86
2024/03/30 09:09:55;;;;;;;0.20;0.20;;;;;;;20.68;43.22;101237.91;5075278;28;20028;-85
2024/03/30 09:12:20;;;;;;;0.20;0.20;;;;;;;20.83;43.37;101247.16;5058312;28;20039;-85
2024/03/30 09:14:46;;;;;;;0.20;0.20;;;;;;;20.88;43.68;101229.22;5074994;28;20028;-85
2024/03/30 09:17:12;;;;;;;0.20;0.20;;;;;;;21.03;43.30;101239.41;5092196;28;20024;-85
2024/03/30 09:19:38;;;;;;;0.20;0.20;;;;;;;21.07;43.26;101230.31;5075083;28;20489;-86
2024/03/30 09:22:04;;;;;;;0.20;0.20;;;;;;;21.18;42.97;101231.06;5091451;28;20020;-85
2024/03/30 09:24:29;;;;;;;0.20;0.20;;;;;;;21.33;42.78;101228.97;5074662;28;20058;-85
2024/03/30 09:26:56;;;;;;;0.20;0.20;;;;;;;21.45;42.06;101227.13;5074551;28;20032;-85
2024/03/30 09:29:22;;;;;;;0.20;0.20;;;;;;;21.55;43.47;101232.44;5091696;28;20055;-85
2024/03/30 09:31:48;;;;;;;0.20;0.20;;;;;;;21.47;42.76;101215.50;5058144;28;20078;-85
2024/03/30 09:34:14;;;;;;;0.20;0.20;;;;;;;21.53;43.79;101222.00;5074799;28;20062;-85
2024/03/30 09:36:39;;;;;;;0.20;0.20;;;;;;;21.51;43.27;101202.06;5074255;28;20040;-85
2024/03/30 09:39:05;;;;;;;0.20;0.20;;;;;;;21.75;44.13;101205.22;5091201;28;20028;-85
2024/03/30 09:41:32;;;;;;;0.20;0.20;;;;;;;21.88;43.20;101205.81;5074325;28;20493;-85
2024/03/30 09:43:58;;;;;;;0.20;0.20;;;;;;;22.06;43.06;101190.19;5074808;28;20639;-86
2024/03/30 09:46:23;;;;;;;0.20;0.20;;;;;;;22.15;42.63;101178.03;5073994;28;20067;-86
2024/03/30 09:48:49;;;;;;;0.20;0.20;;;;;;;22.36;41.99;101183.19;5074728;28;20470;-86
2024/03/30 09:51:14;;;;;;;0.20;0.20;;;;;;;22.52;41.15;101192.22;5057327;28;20421;-86
2024/03/30 09:53:40;;;;;;;0.20;0.20;;;;;;;22.55;41.43;101189.31;5091229;28;20432;-86
2024/03/30 09:56:06;;;;;;;0.20;0.20;;;;;;;22.59;41.71;101198.59;5057103;28;20478;-85
2024/03/30 09:58:32;;;;;;;0.20;0.20;;;;;;;22.70;42.22;101196.78;5073967;28;20084;-85
2024/03/30 10:00:57;;;;;;;0.20;0.20;;;;;;;22.81;41.59;101178.16;5057373;28;20470;-85
2024/03/30 10:03:24;;;;;;;0.20;0.20;;;;;;;23.05;40.65;101199.69;5074050;28;20024;-86
2024/03/30 10:05:49;;;;;;;0.10;0.10;;;;;;;23.16;40.19;101196.88;5074068;28;20032;-85
2024/03/30 10:08:17;;;;;;;0.20;0.20;;;;;;;23.19;39.91;101193.13;5057413;28;20028;-85
2024/03/30 10:10:43;;;;;;;0.20;0.20;;;;;;;23.27;40.01;101192.41;5091137;28;20056;-86
2024/03/30 10:13:12;;;;;;;0.20;0.20;;;;;;;23.42;40.43;101191.00;5074075;28;20110;-86
2024/03/30 10:15:45;;;;;;;0.20;0.20;;;;;;;23.46;39.90;101173.88;5073838;28;20066;-86
2024/03/30 10:18:11;;;;;;;0.20;0.20;;;;;;;23.69;40.12;101175.16;5074111;28;20512;-85
2024/03/30 10:20:37;;;;;;;0.20;0.20;;;;;;;23.63;40.13;101173.13;5056741;28;20405;-86
2024/03/30 10:23:02;;;;;;;0.20;0.20;;;;;;;23.61;40.39;101153.13;5090308;28;20032;-86
2024/03/30 10:25:28;;;;;;;0.20;0.20;;;;;;;23.93;39.63;101171.16;5073493;28;20035;-85
2024/03/30 10:27:54;;;;;;;0.20;0.20;;;;;;;23.96;39.15;101155.84;5074001;28;20036;-85
2024/03/30 10:30:20;;;;;;;0.20;0.20;;;;;;;24.04;39.37;101155.09;5090559;28;20024;-85
2024/03/30 10:32:45;;;;;;;0.13;0.13;;;;;;;24.19;39.11;101153.63;5073842;28;20081;-86
2024/03/30 10:35:13;;;;;;;0.20;0.20;;;;;;;24.38;39.51;101141.22;5073320;28;20031;-85
2024/03/30 10:37:38;;;;;;;0.20;0.20;;;;;;;24.54;38.47;101141.38;5073698;28;20035;-86
2024/03/30 10:40:08;;;;;;;0.20;0.20;;;;;;;24.67;39.04;101135.69;5073327;28;20214;-85
2024/03/30 10:42:34;;;;;;;0.20;0.20;;;;;;;24.71;37.76;101137.06;5073120;28;20028;-86
2024/03/30 10:45:01;;;;;;;0.20;0.20;;;;;;;24.76;38.02;101132.09;5073317;28;20031;-86
2024/03/30 10:47:30;;;;;;;0.20;0.20;;;;;;;24.94;37.61;101124.13;5073648;28;20082;-86
2024/03/30 10:49:57;;;;;;;0.20;0.20;;;;;;;24.94;37.97;101130.25;5089577;28;20024;-86
2024/03/30 10:52:23;;;;;;;0.20;0.20;;;;;;;25.10;36.56;101126.91;5073064;28;20075;-86
2024/03/30 10:54:49;;;;;;;0.20;0.20;;;;;;;25.22;36.08;101124.81;5073240;28;20024;-85
2024/03/30 10:57:15;;;;;;;0.20;0.20;;;;;;;25.06;36.89;101112.31;5072936;28;20097;-85
2024/03/30 10:59:45;;;;;;;0.20;0.20;;;;;;;25.25;36.02;101109.44;5073100;28;20028;-85
2024/03/30 11:02:23;;;;;;;0.20;0.20;;;;;;;25.26;35.58;101089.91;5073583;28;20478;-85
2024/03/30 11:04:53;;;;;;;0.20;0.20;;;;;;;25.35;35.81;101088.94;5090061;28;20066;-85
2024/03/30 11:07:18;;;;;;;0.10;0.10;;;;;;;25.58;35.25;101080.44;5072170;28;20028;-85
2024/03/30 11:09:44;;;;;;;0.20;0.20;;;;;;;25.65;35.29;101084.06;5072973;28;20474;-87
2024/03/30 11:12:10;;;;;;;0.20;0.20;;;;;;;25.67;35.42;101077.66;5056258;28;20462;-85
2024/03/30 11:14:36;;;;;;;0.20;0.20;;;;;;;25.65;36.36;101074.31;5089714;28;20030;-86
2024/03/30 11:17:18;;;;;;;0.20;0.20;;;;;;;25.72;35.68;101090.41;5072866;28;20478;-86
2024/03/30 11:20:11;;;;;;;0.20;0.20;;;;;;;25.97;34.26;101083.34;5072768;28;20028;-86
2024/03/30 11:22:42;;;;;;;0.20;0.20;;;;;;;25.96;35.18;101087.00;5076296;28;20040;-86
2024/03/30 11:25:09;;;;;;;0.20;0.20;;;;;;;26.00;35.59;101078.53;5090823;28;20417;-86